sensor_id;sensor_type;location;lat;lon;timestamp;pressure;altitude;pressure_sealevel;temperature;humidity
76592;BME280;65481;47.600;19.682;2023-03-01T00:00:03;101342.22;;;4.19;78.87
76592;BME280;65481;47.600;19.682;2023-03-01T00:05:04;101340.59;;;4.18;78.45
76592;BME280;65481;47.600;19.682;2023-03-01T00:10:05;101341.56;;;4.17;78.68
76592;BME280;65481;47.600;19.682;2023-03-01T00:15:06;101339.09;;;4.15;78.39
76592;BME280;65481;47.600;19.682;2023-03-01T00:20:08;101338.28;;;4.15;78.48
76592;BME280;65481;47.600;19.682;2023-03-01T00:25:10;101328.16;;;4.12;78.41
76592;BME280;65481;47.600;19.682;2023-03-01T00:30:11;101328.16;;;4.12;78.31
76592;BME280;65481;47.600;19.682;2023-03-01T00:35:11;101325.88;;;4.17;77.68
76592;BME280;65481;47.600;19.682;2023-03-01T00:40:12;101340.25;;;4.21;77.34
76592;BME280;65481;47.600;19.682;2023-03-01T00:45:13;101339.13;;;4.23;77.28
76592;BME280;65481;47.600;19.682;2023-03-01T00:50:13;101333.41;;;4.28;76.78
76592;BME280;65481;47.600;19.682;2023-03-01T00:55:14;101331.13;;;4.25;77.00
76592;BME280;65481;47.600;19.682;2023-03-01T01:00:15;101320.97;;;4.22;77.63
76592;BME280;65481;47.600;19.682;2023-03-01T01:05:15;101320.53;;;4.27;77.07
76592;BME280;65481;47.600;19.682;2023-03-01T01:10:20;101330.63;;;4.30;77.30
76592;BME280;65481;47.600;19.682;2023-03-01T01:15:21;101335.22;;;4.28;77.23
76592;BME280;65481;47.600;19.682;2023-03-01T01:20:21;101336.03;;;4.28;77.06
76592;BME280;65481;47.600;19.682;2023-03-01T01:25:22;101333.59;;;4.27;76.82
76592;BME280;65481;47.600;19.682;2023-03-01T01:30:25;101308.63;;;4.32;76.93
76592;BME280;65481;47.600;19.682;2023-03-01T01:35:25;101304.06;;;4.34;77.18
76592;BME280;65481;47.600;19.682;2023-03-01T01:40:26;101300.28;;;4.29;77.31
76592;BME280;65481;47.600;19.682;2023-03-01T01:45:34;101304.06;;;4.34;77.60
76592;BME280;65481;47.600;19.682;2023-03-01T01:50:36;101289.34;;;4.33;77.80
76592;BME280;65481;47.600;19.682;2023-03-01T01:55:44;101280.38;;;4.36;77.99
76592;BME280;65481;47.600;19.682;2023-03-01T02:00:45;101286.56;;;4.35;78.50
76592;BME280;65481;47.600;19.682;2023-03-01T02:06:03;101275.44;;;4.33;78.70
76592;BME280;65481;47.600;19.682;2023-03-01T02:11:05;101273.50;;;4.35;78.75
76592;BME280;65481;47.600;19.682;2023-03-01T02:16:09;101269.09;;;4.35;78.88
76592;BME280;65481;47.600;19.682;2023-03-01T02:21:40;101272.38;;;4.37;79.04
76592;BME280;65481;47.600;19.682;2023-03-01T02:26:55;101261.25;;;4.27;79.96
76592;BME280;65481;47.600;19.682;2023-03-01T02:31:58;101265.31;;;4.30;79.69
76592;BME280;65481;47.600;19.682;2023-03-01T02:37:05;101253.75;;;4.40;79.49
76592;BME280;65481;47.600;19.682;2023-03-01T02:42:11;101245.09;;;4.40;79.90
76592;BME280;65481;47.600;19.682;2023-03-01T02:47:13;101248.66;;;4.31;80.87
76592;BME280;65481;47.600;19.682;2023-03-01T02:57:43;101246.53;;;4.26;81.11
76592;BME280;65481;47.600;19.682;2023-03-01T03:02:49;101238.06;;;4.32;80.98
76592;BME280;65481;47.600;19.682;2023-03-01T03:07:51;101235.94;;;4.28;81.40
76592;BME280;65481;47.600;19.682;2023-03-01T03:12:53;101230.88;;;4.26;81.49
76592;BME280;65481;47.600;19.682;2023-03-01T03:17:56;101225.97;;;4.31;81.25
76592;BME280;65481;47.600;19.682;2023-03-01T03:22:57;101220.91;;;4.30;80.98
76592;BME280;65481;47.600;19.682;2023-03-01T03:27:58;101218.13;;;4.23;81.46
76592;BME280;65481;47.600;19.682;2023-03-01T03:32:59;101217.47;;;4.21;81.23
76592;BME280;65481;47.600;19.682;2023-03-01T03:38:03;101219.75;;;4.24;80.84
76592;BME280;65481;47.600;19.682;2023-03-01T03:43:20;101217.31;;;4.22;80.92
76592;BME280;65481;47.600;19.682;2023-03-01T03:48:22;101225.97;;;4.23;80.48
76592;BME280;65481;47.600;19.682;2023-03-01T03:53:25;101221.22;;;4.18;80.90
76592;BME280;65481;47.600;19.682;2023-03-01T03:58:26;101236.91;;;4.18;80.62
76592;BME280;65481;47.600;19.682;2023-03-01T04:03:28;101240.00;;;4.14;81.51
76592;BME280;65481;47.600;19.682;2023-03-01T04:08:29;101247.19;;;4.20;81.19
76592;BME280;65481;47.600;19.682;2023-03-01T04:13:29;101239.50;;;4.18;81.58
76592;BME280;65481;47.600;19.682;2023-03-01T04:18:30;101236.41;;;4.15;81.82
76592;BME280;65481;47.600;19.682;2023-03-01T04:23:31;101234.44;;;4.17;82.21
76592;BME280;65481;47.600;19.682;2023-03-01T04:28:34;101237.88;;;4.09;83.05
76592;BME280;65481;47.600;19.682;2023-03-01T04:33:34;101231.97;;;4.15;82.90
76592;BME280;65481;47.600;19.682;2023-03-01T04:38:36;101228.41;;;4.08;83.47
76592;BME280;65481;47.600;19.682;2023-03-01T04:43:37;101231.97;;;4.07;83.81
76592;BME280;65481;47.600;19.682;2023-03-01T04:48:39;101226.59;;;4.00;84.81
76592;BME280;65481;47.600;19.682;2023-03-01T04:53:41;101227.56;;;3.99;85.50
76592;BME280;65481;47.600;19.682;2023-03-01T04:58:42;101228.69;;;3.97;85.97
76592;BME280;65481;47.600;19.682;2023-03-01T05:03:45;101218.53;;;3.93;85.96
76592;BME280;65481;47.600;19.682;2023-03-01T05:08:46;101220.03;;;3.96;85.11
76592;BME280;65481;47.600;19.682;2023-03-01T05:13:46;101218.75;;;4.00;84.95
76592;BME280;65481;47.600;19.682;2023-03-01T05:18:47;101226.41;;;4.02;84.48
76592;BME280;65481;47.600;19.682;2023-03-01T05:23:47;101235.22;;;3.92;84.64
76592;BME280;65481;47.600;19.682;2023-03-01T05:28:48;101236.81;;;3.93;84.99
76592;BME280;65481;47.600;19.682;2023-03-01T05:33:48;101229.19;;;4.00;84.44
76592;BME280;65481;47.600;19.682;2023-03-01T05:38:49;101233.09;;;4.04;84.35
76592;BME280;65481;47.600;19.682;2023-03-01T05:43:49;101242.25;;;4.00;84.73
76592;BME280;65481;47.600;19.682;2023-03-01T05:48:50;101235.41;;;4.07;83.97
76592;BME280;65481;47.600;19.682;2023-03-01T05:53:50;101234.78;;;4.14;83.78
76592;BME280;65481;47.600;19.682;2023-03-01T05:58:51;101239.69;;;4.17;83.89
76592;BME280;65481;47.600;19.682;2023-03-01T06:03:51;101239.03;;;4.23;83.46
76592;BME280;65481;47.600;19.682;2023-03-01T06:08:53;101228.09;;;4.28;83.21
76592;BME280;65481;47.600;19.682;2023-03-01T06:13:54;101245.06;;;4.32;82.82
76592;BME280;65481;47.600;19.682;2023-03-01T06:18:54;101244.78;;;4.43;82.70
76592;BME280;65481;47.600;19.682;2023-03-01T06:23:55;101250.66;;;4.53;82.38
76592;BME280;65481;47.600;19.682;2023-03-01T06:28:56;101250.97;;;4.67;82.09
76592;BME280;65481;47.600;19.682;2023-03-01T06:33:56;101257.84;;;4.84;81.18
76592;BME280;65481;47.600;19.682;2023-03-01T06:38:57;101261.59;;;4.98;80.37
76592;BME280;65481;47.600;19.682;2023-03-01T06:43:58;101263.06;;;5.09;79.64
76592;BME280;65481;47.600;19.682;2023-03-01T06:48:59;101263.88;;;5.18;79.50
76592;BME280;65481;47.600;19.682;2023-03-01T06:53:59;101258.63;;;5.26;79.30
76592;BME280;65481;47.600;19.682;2023-03-01T06:58:59;101259.44;;;5.27;79.25
76592;BME280;65481;47.600;19.682;2023-03-01T07:04:00;101264.94;;;5.40;78.38
76592;BME280;65481;47.600;19.682;2023-03-01T07:09:00;101266.53;;;5.58;77.11
76592;BME280;65481;47.600;19.682;2023-03-01T07:14:01;101261.81;;;5.61;76.34
76592;BME280;65481;47.600;19.682;2023-03-01T07:19:02;101251.25;;;5.78;75.25
76592;BME280;65481;47.600;19.682;2023-03-01T07:24:02;101244.44;;;6.09;74.04
76592;BME280;65481;47.600;19.682;2023-03-01T07:29:04;101236.63;;;6.24;73.25
76592;BME280;65481;47.600;19.682;2023-03-01T07:34:05;101239.97;;;6.41;71.70
76592;BME280;65481;47.600;19.682;2023-03-01T07:39:06;101236.03;;;6.60;69.31
76592;BME280;65481;47.600;19.682;2023-03-01T07:44:06;101242.22;;;6.67;69.46
76592;BME280;65481;47.600;19.682;2023-03-01T07:49:08;101239.09;;;6.87;67.13
76592;BME280;65481;47.600;19.682;2023-03-01T07:54:09;101233.16;;;6.93;67.40
76592;BME280;65481;47.600;19.682;2023-03-01T07:59:09;101239.66;;;7.12;64.92
76592;BME280;65481;47.600;19.682;2023-03-01T08:04:10;101241.09;;;7.60;63.09
76592;BME280;65481;47.600;19.682;2023-03-01T08:09:10;101247.97;;;7.91;62.16
76592;BME280;65481;47.600;19.682;2023-03-01T08:14:11;101243.81;;;8.40;59.78
76592;BME280;65481;47.600;19.682;2023-03-01T08:19:11;101241.31;;;9.03;56.52
76592;BME280;65481;47.600;19.682;2023-03-01T08:24:12;101230.50;;;9.62;52.43
76592;BME280;65481;47.600;19.682;2023-03-01T08:29:12;101221.72;;;10.03;50.43
76592;BME280;65481;47.600;19.682;2023-03-01T08:34:15;101223.88;;;11.41;47.21
76592;BME280;65481;47.600;19.682;2023-03-01T08:39:17;101217.25;;;12.92;43.47
76592;BME280;65481;47.600;19.682;2023-03-01T08:44:19;101216.06;;;11.66;43.01
76592;BME280;65481;47.600;19.682;2023-03-01T08:49:21;101208.59;;;12.78;41.21
76592;BME280;65481;47.600;19.682;2023-03-01T08:54:22;101194.22;;;14.09;39.71
76592;BME280;65481;47.600;19.682;2023-03-01T08:59:22;101194.03;;;14.46;37.49
76592;BME280;65481;47.600;19.682;2023-03-01T09:04:23;101197.38;;;15.54;36.23
76592;BME280;65481;47.600;19.682;2023-03-01T09:09:23;101191.78;;;16.30;34.89
76592;BME280;65481;47.600;19.682;2023-03-01T09:14:24;101188.41;;;16.35;34.36
76592;BME280;65481;47.600;19.682;2023-03-01T09:19:24;101179.13;;;16.77;33.28
76592;BME280;65481;47.600;19.682;2023-03-01T09:24:25;101174.00;;;16.92;32.13
76592;BME280;65481;47.600;19.682;2023-03-01T09:29:26;101173.94;;;16.48;31.91
76592;BME280;65481;47.600;19.682;2023-03-01T09:34:26;101172.91;;;16.88;31.34
76592;BME280;65481;47.600;19.682;2023-03-01T09:39:27;101159.63;;;16.54;30.59
76592;BME280;65481;47.600;19.682;2023-03-01T09:44:29;101159.09;;;16.52;30.33
76592;BME280;65481;47.600;19.682;2023-03-01T09:49:37;101161.25;;;16.55;29.72
76592;BME280;65481;47.600;19.682;2023-03-01T09:54:40;101148.66;;;16.68;29.77
76592;BME280;65481;47.600;19.682;2023-03-01T10:04:48;101141.59;;;16.78;29.70
76592;BME280;65481;47.600;19.682;2023-03-01T10:09:49;101138.56;;;16.70;30.05
76592;BME280;65481;47.600;19.682;2023-03-01T10:15:12;101131.72;;;16.96;29.78
76592;BME280;65481;47.600;19.682;2023-03-01T10:25:24;101117.94;;;16.65;30.54
76592;BME280;65481;47.600;19.682;2023-03-01T10:30:36;101110.78;;;16.88;30.40
76592;BME280;65481;47.600;19.682;2023-03-01T10:35:42;101105.69;;;16.86;30.53
76592;BME280;65481;47.600;19.682;2023-03-01T10:40:57;101102.78;;;16.65;30.77
76592;BME280;65481;47.600;19.682;2023-03-01T10:45:58;101090.13;;;16.78;30.77
76592;BME280;65481;47.600;19.682;2023-03-01T10:56:10;101072.91;;;16.63;30.67
76592;BME280;65481;47.600;19.682;2023-03-01T11:16:31;101061.91;;;16.38;31.63
76592;BME280;65481;47.600;19.682;2023-03-01T11:21:34;101053.25;;;16.47;31.75
76592;BME280;65481;47.600;19.682;2023-03-01T11:26:40;101037.78;;;16.67;31.76
76592;BME280;65481;47.600;19.682;2023-03-01T11:31:42;101028.41;;;16.64;31.77
76592;BME280;65481;47.600;19.682;2023-03-01T11:36:49;101039.06;;;16.02;32.51
76592;BME280;65481;47.600;19.682;2023-03-01T11:42:50;101032.81;;;16.31;32.35
76592;BME280;65481;47.600;19.682;2023-03-01T12:03:26;101013.50;;;16.01;33.42
76592;BME280;65481;47.600;19.682;2023-03-01T12:14:25;100988.91;;;15.77;33.38
76592;BME280;65481;47.600;19.682;2023-03-01T12:30:22;100975.75;;;16.04;33.17
76592;BME280;65481;47.600;19.682;2023-03-01T12:47:25;100964.44;;;15.92;33.17
76592;BME280;65481;47.600;19.682;2023-03-01T13:02:49;100944.78;;;15.25;34.09
76592;BME280;65481;47.600;19.682;2023-03-01T13:13:24;100941.28;;;15.07;34.58
76592;BME280;65481;47.600;19.682;2023-03-01T13:23:30;100927.59;;;14.98;34.85
76592;BME280;65481;47.600;19.682;2023-03-01T13:33:52;100913.69;;;14.91;35.05
76592;BME280;65481;47.600;19.682;2023-03-01T13:43:57;100924.31;;;15.08;34.87
76592;BME280;65481;47.600;19.682;2023-03-01T13:48:58;100918.34;;;15.01;35.00
76592;BME280;65481;47.600;19.682;2023-03-01T13:53:59;100906.81;;;14.49;35.45
76592;BME280;65481;47.600;19.682;2023-03-01T13:59:03;100896.47;;;13.83;36.17
76592;BME280;65481;47.600;19.682;2023-03-01T14:04:26;100885.50;;;13.91;36.24
76592;BME280;65481;47.600;19.682;2023-03-01T14:09:28;100896.25;;;13.73;36.49
76592;BME280;65481;47.600;19.682;2023-03-01T14:19:58;100885.31;;;13.69;37.09
76592;BME280;65481;47.600;19.682;2023-03-01T14:25:02;100870.78;;;13.72;37.08
76592;BME280;65481;47.600;19.682;2023-03-01T14:35:24;100857.81;;;13.87;37.04
76592;BME280;65481;47.600;19.682;2023-03-01T14:40:29;100861.53;;;13.74;37.18
76592;BME280;65481;47.600;19.682;2023-03-01T14:45:30;100844.41;;;13.53;37.65
76592;BME280;65481;47.600;19.682;2023-03-01T14:50:32;100850.69;;;13.28;38.03
76592;BME280;65481;47.600;19.682;2023-03-01T14:55:40;100849.53;;;13.00;38.49
76592;BME280;65481;47.600;19.682;2023-03-01T15:01:01;100833.28;;;12.85;38.63
76592;BME280;65481;47.600;19.682;2023-03-01T15:06:05;100836.84;;;12.79;39.03
76592;BME280;65481;47.600;19.682;2023-03-01T15:11:27;100825.63;;;12.65;39.42
76592;BME280;65481;47.600;19.682;2023-03-01T15:16:30;100822.81;;;12.36;39.77
76592;BME280;65481;47.600;19.682;2023-03-01T15:21:38;100815.03;;;12.22;40.34
76592;BME280;65481;47.600;19.682;2023-03-01T15:26:43;100813.13;;;11.92;41.00
76592;BME280;65481;47.600;19.682;2023-03-01T15:42:37;100825.25;;;11.44;42.20
76592;BME280;65481;47.600;19.682;2023-03-01T15:47:46;100817.22;;;11.32;42.60
76592;BME280;65481;47.600;19.682;2023-03-01T15:52:48;100817.78;;;11.16;43.16
76592;BME280;65481;47.600;19.682;2023-03-01T15:57:50;100820.59;;;10.96;44.03
76592;BME280;65481;47.600;19.682;2023-03-01T16:02:59;100831.47;;;10.81;44.56
76592;BME280;65481;47.600;19.682;2023-03-01T16:08:00;100833.25;;;10.62;45.25
76592;BME280;65481;47.600;19.682;2023-03-01T16:13:00;100833.34;;;10.48;45.53
76592;BME280;65481;47.600;19.682;2023-03-01T16:18:03;100840.09;;;10.30;45.77
76592;BME280;65481;47.600;19.682;2023-03-01T16:23:07;100843.19;;;10.21;46.04
76592;BME280;65481;47.600;19.682;2023-03-01T16:28:08;100847.66;;;10.13;45.96
76592;BME280;65481;47.600;19.682;2023-03-01T16:33:10;100854.19;;;9.97;46.56
76592;BME280;65481;47.600;19.682;2023-03-01T16:38:10;100855.25;;;9.83;46.99
76592;BME280;65481;47.600;19.682;2023-03-01T16:43:11;100853.47;;;9.63;47.51
76592;BME280;65481;47.600;19.682;2023-03-01T16:48:13;100858.56;;;9.51;47.63
76592;BME280;65481;47.600;19.682;2023-03-01T16:53:13;100864.25;;;9.42;48.20
76592;BME280;65481;47.600;19.682;2023-03-01T16:58:14;100863.25;;;9.29;48.44
76592;BME280;65481;47.600;19.682;2023-03-01T17:03:16;100870.34;;;9.22;48.74
76592;BME280;65481;47.600;19.682;2023-03-01T17:08:17;100861.63;;;9.08;49.05
76592;BME280;65481;47.600;19.682;2023-03-01T17:13:18;100853.94;;;9.00;49.55
76592;BME280;65481;47.600;19.682;2023-03-01T17:18:18;100860.41;;;8.90;49.84
76592;BME280;65481;47.600;19.682;2023-03-01T17:23:19;100864.44;;;8.79;50.31
76592;BME280;65481;47.600;19.682;2023-03-01T17:28:22;100864.59;;;8.64;50.96
76592;BME280;65481;47.600;19.682;2023-03-01T17:33:23;100864.09;;;8.41;51.73
76592;BME280;65481;47.600;19.682;2023-03-01T17:38:24;100879.56;;;8.15;51.95
76592;BME280;65481;47.600;19.682;2023-03-01T17:43:25;100878.53;;;8.03;52.03
76592;BME280;65481;47.600;19.682;2023-03-01T17:48:26;100880.94;;;7.69;52.50
76592;BME280;65481;47.600;19.682;2023-03-01T17:53:27;100865.28;;;7.48;53.29
76592;BME280;65481;47.600;19.682;2023-03-01T17:58:28;100873.91;;;7.41;54.36
76592;BME280;65481;47.600;19.682;2023-03-01T18:03:29;100870.66;;;7.39;54.58
76592;BME280;65481;47.600;19.682;2023-03-01T18:08:29;100869.72;;;7.25;54.96
76592;BME280;65481;47.600;19.682;2023-03-01T18:13:30;100853.69;;;7.13;55.86
76592;BME280;65481;47.600;19.682;2023-03-01T18:18:31;100858.06;;;7.06;55.85
76592;BME280;65481;47.600;19.682;2023-03-01T18:23:33;100861.50;;;6.85;57.03
76592;BME280;65481;47.600;19.682;2023-03-01T18:28:35;100860.63;;;6.56;58.56
76592;BME280;65481;47.600;19.682;2023-03-01T18:33:38;100861.75;;;6.47;59.51
76592;BME280;65481;47.600;19.682;2023-03-01T18:38:39;100863.59;;;6.53;59.13
76592;BME280;65481;47.600;19.682;2023-03-01T18:43:39;100856.84;;;6.44;59.16
76592;BME280;65481;47.600;19.682;2023-03-01T18:48:41;100861.50;;;6.27;60.42
76592;BME280;65481;47.600;19.682;2023-03-01T18:53:42;100859.50;;;6.14;61.36
76592;BME280;65481;47.600;19.682;2023-03-01T18:58:43;100861.56;;;5.88;61.77
76592;BME280;65481;47.600;19.682;2023-03-01T19:03:44;100851.00;;;5.67;62.32
76592;BME280;65481;47.600;19.682;2023-03-01T19:08:47;100852.44;;;5.54;62.76
76592;BME280;65481;47.600;19.682;2023-03-01T19:13:50;100862.38;;;5.44;63.20
76592;BME280;65481;47.600;19.682;2023-03-01T19:18:54;100858.28;;;5.41;63.38
76592;BME280;65481;47.600;19.682;2023-03-01T19:23:57;100856.03;;;5.38;63.66
76592;BME280;65481;47.600;19.682;2023-03-01T19:28:58;100857.91;;;5.29;64.64
76592;BME280;65481;47.600;19.682;2023-03-01T19:33:59;100851.41;;;5.25;64.94
76592;BME280;65481;47.600;19.682;2023-03-01T19:39:03;100847.69;;;5.20;65.10
76592;BME280;65481;47.600;19.682;2023-03-01T19:44:06;100853.78;;;5.12;65.23
76592;BME280;65481;47.600;19.682;2023-03-01T19:49:08;100852.00;;;5.12;65.06
76592;BME280;65481;47.600;19.682;2023-03-01T19:54:09;100863.78;;;5.08;65.20
76592;BME280;65481;47.600;19.682;2023-03-01T19:59:12;100855.03;;;5.01;64.91
76592;BME280;65481;47.600;19.682;2023-03-01T20:04:13;100858.47;;;5.02;64.59
76592;BME280;65481;47.600;19.682;2023-03-01T20:09:15;100854.22;;;5.00;64.13
76592;BME280;65481;47.600;19.682;2023-03-01T20:14:17;100852.38;;;4.86;64.37
76592;BME280;65481;47.600;19.682;2023-03-01T20:19:18;100845.97;;;4.65;62.53
76592;BME280;65481;47.600;19.682;2023-03-01T20:24:19;100849.19;;;4.04;61.73
76592;BME280;65481;47.600;19.682;2023-03-01T20:29:20;100859.16;;;3.20;62.25
76592;BME280;65481;47.600;19.682;2023-03-01T20:34:21;100858.31;;;2.78;63.19
76592;BME280;65481;47.600;19.682;2023-03-01T20:39:22;100863.19;;;2.72;64.40
76592;BME280;65481;47.600;19.682;2023-03-01T20:44:23;100874.72;;;2.62;65.03
76592;BME280;65481;47.600;19.682;2023-03-01T20:49:24;100878.94;;;2.11;67.81
76592;BME280;65481;47.600;19.682;2023-03-01T20:54:25;100878.84;;;1.95;70.43
76592;BME280;65481;47.600;19.682;2023-03-01T20:59:28;100887.22;;;2.07;70.24
76592;BME280;65481;47.600;19.682;2023-03-01T21:04:29;100894.06;;;2.42;69.03
76592;BME280;65481;47.600;19.682;2023-03-01T21:09:29;100893.31;;;2.75;67.94
76592;BME280;65481;47.600;19.682;2023-03-01T21:14:30;100894.97;;;2.84;68.20
76592;BME280;65481;47.600;19.682;2023-03-01T21:19:43;100901.13;;;2.75;69.02
76592;BME280;65481;47.600;19.682;2023-03-01T21:24:43;100894.09;;;2.67;69.30
76592;BME280;65481;47.600;19.682;2023-03-01T21:29:45;100893.31;;;2.67;69.10
76592;BME280;65481;47.600;19.682;2023-03-01T21:34:46;100881.34;;;2.48;71.46
76592;BME280;65481;47.600;19.682;2023-03-01T21:39:46;100894.31;;;2.31;73.07
76592;BME280;65481;47.600;19.682;2023-03-01T21:44:47;100890.19;;;2.12;73.78
76592;BME280;65481;47.600;19.682;2023-03-01T21:49:48;100902.75;;;1.90;74.87
76592;BME280;65481;47.600;19.682;2023-03-01T21:54:51;100896.06;;;1.88;75.20
76592;BME280;65481;47.600;19.682;2023-03-01T21:59:52;100897.53;;;1.64;76.53
76592;BME280;65481;47.600;19.682;2023-03-01T22:04:53;100900.31;;;1.62;77.50
76592;BME280;65481;47.600;19.682;2023-03-01T22:09:56;100909.38;;;1.58;78.46
76592;BME280;65481;47.600;19.682;2023-03-01T22:14:57;100909.16;;;1.51;78.11
76592;BME280;65481;47.600;19.682;2023-03-01T22:19:57;100908.78;;;1.46;78.36
76592;BME280;65481;47.600;19.682;2023-03-01T22:24:58;100905.16;;;1.39;77.51
76592;BME280;65481;47.600;19.682;2023-03-01T22:29:58;100910.69;;;1.00;78.71
76592;BME280;65481;47.600;19.682;2023-03-01T22:34:59;100906.50;;;0.89;77.92
76592;BME280;65481;47.600;19.682;2023-03-01T22:39:59;100901.59;;;1.04;78.75
76592;BME280;65481;47.600;19.682;2023-03-01T22:45:00;100903.47;;;1.12;78.17
76592;BME280;65481;47.600;19.682;2023-03-01T22:50:00;100901.53;;;1.14;77.73
76592;BME280;65481;47.600;19.682;2023-03-01T22:55:01;100893.75;;;0.96;78.85
76592;BME280;65481;47.600;19.682;2023-03-01T23:00:05;100900.78;;;1.03;80.45
76592;BME280;65481;47.600;19.682;2023-03-01T23:05:08;100898.25;;;1.12;80.27
76592;BME280;65481;47.600;19.682;2023-03-01T23:10:09;100898.56;;;0.90;82.47
76592;BME280;65481;47.600;19.682;2023-03-01T23:15:11;100888.28;;;0.71;84.91
76592;BME280;65481;47.600;19.682;2023-03-01T23:20:12;100893.09;;;0.66;85.69
76592;BME280;65481;47.600;19.682;2023-03-01T23:25:13;100886.13;;;0.66;86.41
76592;BME280;65481;47.600;19.682;2023-03-01T23:30:14;100892.28;;;0.65;87.16
76592;BME280;65481;47.600;19.682;2023-03-01T23:35:14;100889.00;;;0.45;89.61
76592;BME280;65481;47.600;19.682;2023-03-01T23:40:15;100889.72;;;0.27;92.64
76592;BME280;65481;47.600;19.682;2023-03-01T23:45:16;100880.22;;;0.18;95.93
76592;BME280;65481;47.600;19.682;2023-03-01T23:50:16;100877.25;;;0.13;98.50
76592;BME280;65481;47.600;19.682;2023-03-01T23:55:18;100872.03;;;0.13;99.68
